sensor_id;sensor_type;location;lat;lon;timestamp;P1;durP1;ratioP1;P2;durP2;ratioP2
62990;SDS011;49084;48.204;16.202;2024-01-27T00:00:08;0.80;;;0.05;;
62990;SDS011;49084;48.204;16.202;2024-01-27T00:02:35;1.38;;;0.10;;
62990;SDS011;49084;48.204;16.202;2024-01-27T00:05:01;0.65;;;0.00;;
62990;SDS011;49084;48.204;16.202;2024-01-27T00:07:27;1.08;;;0.00;;
62990;SDS011;49084;48.204;16.202;2024-01-27T00:09:53;0.10;;;0.00;;
62990;SDS011;49084;48.204;16.202;2024-01-27T00:12:20;0.80;;;0.10;;
62990;SDS011;49084;48.204;16.202;2024-01-27T00:14:45;1.08;;;0.10;;
62990;SDS011;49084;48.204;16.202;2024-01-27T00:17:11;0.50;;;0.10;;
62990;SDS011;49084;48.204;16.202;2024-01-27T00:19:37;1.27;;;0.10;;
62990;SDS011;49084;48.204;16.202;2024-01-27T00:22:02;0.30;;;0.10;;
62990;SDS011;49084;48.204;16.202;2024-01-27T00:24:28;0.15;;;0.00;;
62990;SDS011;49084;48.204;16.202;2024-01-27T00:26:54;0.00;;;0.00;;
62990;SDS011;49084;48.204;16.202;2024-01-27T00:29:20;1.10;;;0.17;;
62990;SDS011;49084;48.204;16.202;2024-01-27T00:31:45;1.38;;;0.10;;
62990;SDS011;49084;48.204;16.202;2024-01-27T00:34:11;0.90;;;0.10;;
62990;SDS011;49084;48.204;16.202;2024-01-27T00:36:37;0.73;;;0.00;;
62990;SDS011;49084;48.204;16.202;2024-01-27T00:39:03;0.98;;;0.20;;
62990;SDS011;49084;48.204;16.202;2024-01-27T00:41:29;1.15;;;0.00;;
62990;SDS011;49084;48.204;16.202;2024-01-27T00:43:55;1.67;;;0.10;;
62990;SDS011;49084;48.204;16.202;2024-01-27T00:46:20;1.35;;;0.15;;
62990;SDS011;49084;48.204;16.202;2024-01-27T00:48:47;0.10;;;0.10;;
62990;SDS011;49084;48.204;16.202;2024-01-27T00:51:12;2.45;;;0.20;;
62990;SDS011;49084;48.204;16.202;2024-01-27T00:53:38;0.70;;;0.20;;
62990;SDS011;49084;48.204;16.202;2024-01-27T00:56:04;0.73;;;0.10;;
62990;SDS011;49084;48.204;16.202;2024-01-27T00:58:30;0.15;;;0.10;;
62990;SDS011;49084;48.204;16.202;2024-01-27T01:00:56;4.80;;;0.50;;
62990;SDS011;49084;48.204;16.202;2024-01-27T01:03:23;0.63;;;0.10;;
62990;SDS011;49084;48.204;16.202;2024-01-27T01:05:49;0.30;;;0.10;;
62990;SDS011;49084;48.204;16.202;2024-01-27T01:08:14;1.13;;;0.25;;
62990;SDS011;49084;48.204;16.202;2024-01-27T01:10:40;0.30;;;0.22;;
62990;SDS011;49084;48.204;16.202;2024-01-27T01:13:06;1.67;;;0.30;;
62990;SDS011;49084;48.204;16.202;2024-01-27T01:15:32;2.33;;;0.20;;
62990;SDS011;49084;48.204;16.202;2024-01-27T01:17:57;2.00;;;0.55;;
62990;SDS011;49084;48.204;16.202;2024-01-27T01:20:23;1.13;;;0.10;;
62990;SDS011;49084;48.204;16.202;2024-01-27T01:22:51;1.55;;;0.35;;
62990;SDS011;49084;48.204;16.202;2024-01-27T01:25:17;2.65;;;0.32;;
62990;SDS011;49084;48.204;16.202;2024-01-27T01:27:42;0.93;;;0.55;;
62990;SDS011;49084;48.204;16.202;2024-01-27T01:30:08;3.60;;;0.25;;
62990;SDS011;49084;48.204;16.202;2024-01-27T01:32:34;1.52;;;0.30;;
62990;SDS011;49084;48.204;16.202;2024-01-27T01:35:00;0.95;;;0.30;;
62990;SDS011;49084;48.204;16.202;2024-01-27T01:37:26;1.77;;;0.55;;
62990;SDS011;49084;48.204;16.202;2024-01-27T01:39:51;2.00;;;0.28;;
62990;SDS011;49084;48.204;16.202;2024-01-27T01:42:17;3.75;;;0.40;;
62990;SDS011;49084;48.204;16.202;2024-01-27T01:44:43;3.20;;;0.20;;
62990;SDS011;49084;48.204;16.202;2024-01-27T01:47:08;1.75;;;0.40;;
62990;SDS011;49084;48.204;16.202;2024-01-27T01:49:35;1.95;;;0.47;;
62990;SDS011;49084;48.204;16.202;2024-01-27T01:52:02;2.53;;;0.20;;
62990;SDS011;49084;48.204;16.202;2024-01-27T01:54:28;2.45;;;0.20;;
62990;SDS011;49084;48.204;16.202;2024-01-27T01:56:55;2.40;;;0.75;;
62990;SDS011;49084;48.204;16.202;2024-01-27T01:59:23;0.90;;;0.30;;
62990;SDS011;49084;48.204;16.202;2024-01-27T02:01:48;2.97;;;0.43;;
62990;SDS011;49084;48.204;16.202;2024-01-27T02:04:14;1.13;;;0.28;;
62990;SDS011;49084;48.204;16.202;2024-01-27T02:06:40;4.20;;;0.75;;
62990;SDS011;49084;48.204;16.202;2024-01-27T02:09:05;2.00;;;0.50;;
62990;SDS011;49084;48.204;16.202;2024-01-27T02:11:31;1.88;;;0.40;;
62990;SDS011;49084;48.204;16.202;2024-01-27T02:13:57;1.95;;;0.57;;
62990;SDS011;49084;48.204;16.202;2024-01-27T02:16:22;3.40;;;0.60;;
62990;SDS011;49084;48.204;16.202;2024-01-27T02:18:48;3.70;;;0.43;;
62990;SDS011;49084;48.204;16.202;2024-01-27T02:21:14;2.95;;;0.57;;
62990;SDS011;49084;48.204;16.202;2024-01-27T02:23:39;3.83;;;0.77;;
62990;SDS011;49084;48.204;16.202;2024-01-27T02:26:05;3.15;;;0.60;;
62990;SDS011;49084;48.204;16.202;2024-01-27T02:28:31;3.22;;;0.40;;
62990;SDS011;49084;48.204;16.202;2024-01-27T02:31:00;1.67;;;0.30;;
62990;SDS011;49084;48.204;16.202;2024-01-27T02:33:26;3.33;;;0.63;;
62990;SDS011;49084;48.204;16.202;2024-01-27T02:35:51;1.98;;;0.30;;
62990;SDS011;49084;48.204;16.202;2024-01-27T02:38:17;1.23;;;0.40;;
62990;SDS011;49084;48.204;16.202;2024-01-27T02:40:43;1.20;;;0.30;;
62990;SDS011;49084;48.204;16.202;2024-01-27T02:43:08;1.35;;;0.60;;
62990;SDS011;49084;48.204;16.202;2024-01-27T02:45:34;3.53;;;0.38;;
62990;SDS011;49084;48.204;16.202;2024-01-27T02:48:00;1.88;;;0.50;;
62990;SDS011;49084;48.204;16.202;2024-01-27T02:50:25;4.00;;;0.40;;
62990;SDS011;49084;48.204;16.202;2024-01-27T02:52:52;0.80;;;0.50;;
62990;SDS011;49084;48.204;16.202;2024-01-27T02:55:17;5.30;;;0.90;;
62990;SDS011;49084;48.204;16.202;2024-01-27T02:57:43;2.72;;;0.40;;
62990;SDS011;49084;48.204;16.202;2024-01-27T03:00:09;1.80;;;0.82;;
62990;SDS011;49084;48.204;16.202;2024-01-27T03:02:35;1.95;;;0.60;;
62990;SDS011;49084;48.204;16.202;2024-01-27T03:05:00;2.50;;;0.63;;
62990;SDS011;49084;48.204;16.202;2024-01-27T03:07:26;4.82;;;1.35;;
62990;SDS011;49084;48.204;16.202;2024-01-27T03:09:52;3.22;;;0.63;;
62990;SDS011;49084;48.204;16.202;2024-01-27T03:12:17;3.08;;;0.63;;
62990;SDS011;49084;48.204;16.202;2024-01-27T03:14:43;5.68;;;0.80;;
62990;SDS011;49084;48.204;16.202;2024-01-27T03:17:09;2.72;;;0.82;;
62990;SDS011;49084;48.204;16.202;2024-01-27T03:19:35;1.95;;;0.68;;
62990;SDS011;49084;48.204;16.202;2024-01-27T03:22:01;2.70;;;0.50;;
62990;SDS011;49084;48.204;16.202;2024-01-27T03:24:26;5.82;;;0.90;;
62990;SDS011;49084;48.204;16.202;2024-01-27T03:26:52;3.33;;;1.23;;
62990;SDS011;49084;48.204;16.202;2024-01-27T03:29:18;1.75;;;0.80;;
62990;SDS011;49084;48.204;16.202;2024-01-27T03:31:43;1.20;;;0.77;;
62990;SDS011;49084;48.204;16.202;2024-01-27T03:34:09;2.78;;;1.25;;
62990;SDS011;49084;48.204;16.202;2024-01-27T03:36:35;3.88;;;0.98;;
62990;SDS011;49084;48.204;16.202;2024-01-27T03:39:00;4.80;;;1.15;;
62990;SDS011;49084;48.204;16.202;2024-01-27T03:41:26;2.47;;;0.90;;
62990;SDS011;49084;48.204;16.202;2024-01-27T03:43:52;3.25;;;1.00;;
62990;SDS011;49084;48.204;16.202;2024-01-27T03:46:17;2.20;;;0.90;;
62990;SDS011;49084;48.204;16.202;2024-01-27T03:48:43;4.68;;;2.03;;
62990;SDS011;49084;48.204;16.202;2024-01-27T03:51:09;2.92;;;0.93;;
62990;SDS011;49084;48.204;16.202;2024-01-27T03:53:34;5.35;;;1.40;;
62990;SDS011;49084;48.204;16.202;2024-01-27T03:56:01;4.65;;;0.73;;
62990;SDS011;49084;48.204;16.202;2024-01-27T03:58:29;3.80;;;1.08;;
62990;SDS011;49084;48.204;16.202;2024-01-27T04:00:55;2.22;;;1.00;;
62990;SDS011;49084;48.204;16.202;2024-01-27T04:03:21;2.70;;;0.57;;
62990;SDS011;49084;48.204;16.202;2024-01-27T04:05:47;5.38;;;1.42;;
62990;SDS011;49084;48.204;16.202;2024-01-27T04:08:13;3.53;;;1.10;;
62990;SDS011;49084;48.204;16.202;2024-01-27T04:10:39;5.03;;;1.15;;
62990;SDS011;49084;48.204;16.202;2024-01-27T04:13:04;2.15;;;0.85;;
62990;SDS011;49084;48.204;16.202;2024-01-27T04:15:32;4.63;;;1.10;;
62990;SDS011;49084;48.204;16.202;2024-01-27T04:18:03;2.50;;;0.95;;
62990;SDS011;49084;48.204;16.202;2024-01-27T04:20:29;3.25;;;1.00;;
62990;SDS011;49084;48.204;16.202;2024-01-27T04:22:55;4.30;;;0.90;;
62990;SDS011;49084;48.204;16.202;2024-01-27T04:25:20;2.10;;;0.90;;
62990;SDS011;49084;48.204;16.202;2024-01-27T04:27:46;5.93;;;1.30;;
62990;SDS011;49084;48.204;16.202;2024-01-27T04:30:12;6.03;;;1.42;;
62990;SDS011;49084;48.204;16.202;2024-01-27T04:32:38;2.85;;;1.20;;
62990;SDS011;49084;48.204;16.202;2024-01-27T04:35:04;8.15;;;1.52;;
62990;SDS011;49084;48.204;16.202;2024-01-27T04:37:33;2.78;;;1.20;;
62990;SDS011;49084;48.204;16.202;2024-01-27T04:39:58;4.72;;;1.42;;
62990;SDS011;49084;48.204;16.202;2024-01-27T04:42:24;3.70;;;1.20;;
62990;SDS011;49084;48.204;16.202;2024-01-27T04:44:50;6.28;;;1.77;;
62990;SDS011;49084;48.204;16.202;2024-01-27T04:47:15;2.75;;;1.25;;
62990;SDS011;49084;48.204;16.202;2024-01-27T04:49:42;5.20;;;1.00;;
62990;SDS011;49084;48.204;16.202;2024-01-27T04:52:07;2.83;;;1.17;;
62990;SDS011;49084;48.204;16.202;2024-01-27T04:54:33;3.72;;;1.70;;
62990;SDS011;49084;48.204;16.202;2024-01-27T04:56:58;4.32;;;1.02;;
62990;SDS011;49084;48.204;16.202;2024-01-27T04:59:24;1.38;;;0.80;;
62990;SDS011;49084;48.204;16.202;2024-01-27T05:01:50;7.38;;;1.48;;
62990;SDS011;49084;48.204;16.202;2024-01-27T05:04:16;5.28;;;1.00;;
62990;SDS011;49084;48.204;16.202;2024-01-27T05:06:44;6.72;;;1.50;;
62990;SDS011;49084;48.204;16.202;2024-01-27T05:09:10;3.95;;;0.98;;
62990;SDS011;49084;48.204;16.202;2024-01-27T05:11:37;3.72;;;1.13;;
62990;SDS011;49084;48.204;16.202;2024-01-27T05:14:02;2.25;;;1.15;;
62990;SDS011;49084;48.204;16.202;2024-01-27T05:16:28;2.50;;;0.88;;
62990;SDS011;49084;48.204;16.202;2024-01-27T05:18:54;2.08;;;1.00;;
62990;SDS011;49084;48.204;16.202;2024-01-27T05:21:20;4.65;;;1.08;;
62990;SDS011;49084;48.204;16.202;2024-01-27T05:23:45;3.15;;;1.10;;
62990;SDS011;49084;48.204;16.202;2024-01-27T05:26:11;2.33;;;1.13;;
62990;SDS011;49084;48.204;16.202;2024-01-27T05:28:37;5.45;;;1.75;;
62990;SDS011;49084;48.204;16.202;2024-01-27T05:31:06;3.08;;;0.70;;
62990;SDS011;49084;48.204;16.202;2024-01-27T05:33:33;1.83;;;0.80;;
62990;SDS011;49084;48.204;16.202;2024-01-27T05:35:59;2.53;;;1.10;;
62990;SDS011;49084;48.204;16.202;2024-01-27T05:38:25;3.08;;;1.00;;
62990;SDS011;49084;48.204;16.202;2024-01-27T05:40:51;7.00;;;0.88;;
62990;SDS011;49084;48.204;16.202;2024-01-27T05:43:17;3.58;;;1.15;;
62990;SDS011;49084;48.204;16.202;2024-01-27T05:45:43;1.15;;;0.82;;
62990;SDS011;49084;48.204;16.202;2024-01-27T05:48:10;2.65;;;0.93;;
62990;SDS011;49084;48.204;16.202;2024-01-27T05:50:36;5.13;;;1.00;;
62990;SDS011;49084;48.204;16.202;2024-01-27T05:53:01;6.35;;;1.00;;
62990;SDS011;49084;48.204;16.202;2024-01-27T05:55:27;4.57;;;1.45;;
62990;SDS011;49084;48.204;16.202;2024-01-27T05:57:54;3.58;;;1.15;;
62990;SDS011;49084;48.204;16.202;2024-01-27T06:00:21;7.20;;;1.38;;
62990;SDS011;49084;48.204;16.202;2024-01-27T06:02:47;4.57;;;1.30;;
62990;SDS011;49084;48.204;16.202;2024-01-27T06:05:13;4.70;;;1.85;;
62990;SDS011;49084;48.204;16.202;2024-01-27T06:07:38;5.15;;;1.40;;
62990;SDS011;49084;48.204;16.202;2024-01-27T06:10:07;4.32;;;1.23;;
62990;SDS011;49084;48.204;16.202;2024-01-27T06:12:33;5.00;;;1.70;;
62990;SDS011;49084;48.204;16.202;2024-01-27T06:14:59;2.30;;;1.75;;
62990;SDS011;49084;48.204;16.202;2024-01-27T06:17:25;4.18;;;1.45;;
62990;SDS011;49084;48.204;16.202;2024-01-27T06:19:51;1.85;;;1.10;;
62990;SDS011;49084;48.204;16.202;2024-01-27T06:22:16;4.65;;;1.27;;
62990;SDS011;49084;48.204;16.202;2024-01-27T06:24:42;6.32;;;2.60;;
62990;SDS011;49084;48.204;16.202;2024-01-27T06:27:09;4.72;;;1.23;;
62990;SDS011;49084;48.204;16.202;2024-01-27T06:29:35;2.80;;;1.13;;
62990;SDS011;49084;48.204;16.202;2024-01-27T06:32:00;3.15;;;1.30;;
62990;SDS011;49084;48.204;16.202;2024-01-27T06:34:26;4.72;;;1.75;;
62990;SDS011;49084;48.204;16.202;2024-01-27T06:36:52;4.88;;;1.13;;
62990;SDS011;49084;48.204;16.202;2024-01-27T06:39:17;5.38;;;1.33;;
62990;SDS011;49084;48.204;16.202;2024-01-27T06:41:43;8.13;;;1.65;;
62990;SDS011;49084;48.204;16.202;2024-01-27T06:44:09;5.72;;;1.77;;
62990;SDS011;49084;48.204;16.202;2024-01-27T06:46:34;7.00;;;1.38;;
62990;SDS011;49084;48.204;16.202;2024-01-27T06:49:00;2.83;;;1.20;;
62990;SDS011;49084;48.204;16.202;2024-01-27T06:51:26;5.47;;;1.65;;
62990;SDS011;49084;48.204;16.202;2024-01-27T06:53:52;7.88;;;1.50;;
62990;SDS011;49084;48.204;16.202;2024-01-27T06:56:18;3.88;;;1.10;;
62990;SDS011;49084;48.204;16.202;2024-01-27T06:58:43;2.70;;;1.33;;
62990;SDS011;49084;48.204;16.202;2024-01-27T07:01:09;6.20;;;1.58;;
62990;SDS011;49084;48.204;16.202;2024-01-27T07:03:35;8.65;;;2.35;;
62990;SDS011;49084;48.204;16.202;2024-01-27T07:06:00;5.30;;;2.20;;
62990;SDS011;49084;48.204;16.202;2024-01-27T07:08:26;6.82;;;1.23;;
62990;SDS011;49084;48.204;16.202;2024-01-27T07:10:52;4.32;;;1.42;;
62990;SDS011;49084;48.204;16.202;2024-01-27T07:13:17;3.42;;;1.25;;
62990;SDS011;49084;48.204;16.202;2024-01-27T07:15:43;2.85;;;1.25;;
62990;SDS011;49084;48.204;16.202;2024-01-27T07:18:09;1.63;;;1.10;;
62990;SDS011;49084;48.204;16.202;2024-01-27T07:20:35;3.75;;;1.10;;
62990;SDS011;49084;48.204;16.202;2024-01-27T07:23:02;3.75;;;2.05;;
62990;SDS011;49084;48.204;16.202;2024-01-27T07:25:27;3.38;;;0.95;;
62990;SDS011;49084;48.204;16.202;2024-01-27T07:27:54;4.63;;;1.10;;
62990;SDS011;49084;48.204;16.202;2024-01-27T07:30:20;7.88;;;1.45;;
62990;SDS011;49084;48.204;16.202;2024-01-27T07:32:46;5.63;;;0.95;;
62990;SDS011;49084;48.204;16.202;2024-01-27T07:35:11;8.00;;;1.45;;
62990;SDS011;49084;48.204;16.202;2024-01-27T07:37:37;6.53;;;1.40;;
62990;SDS011;49084;48.204;16.202;2024-01-27T07:40:03;4.22;;;1.50;;
62990;SDS011;49084;48.204;16.202;2024-01-27T07:42:30;6.07;;;1.75;;
62990;SDS011;49084;48.204;16.202;2024-01-27T07:44:56;7.25;;;1.60;;
62990;SDS011;49084;48.204;16.202;2024-01-27T07:47:22;6.55;;;1.58;;
62990;SDS011;49084;48.204;16.202;2024-01-27T07:49:48;8.27;;;2.83;;
62990;SDS011;49084;48.204;16.202;2024-01-27T07:52:14;4.72;;;1.45;;
62990;SDS011;49084;48.204;16.202;2024-01-27T07:54:39;3.70;;;1.83;;
62990;SDS011;49084;48.204;16.202;2024-01-27T07:57:05;4.30;;;1.38;;
62990;SDS011;49084;48.204;16.202;2024-01-27T07:59:31;7.60;;;1.95;;
62990;SDS011;49084;48.204;16.202;2024-01-27T08:01:58;6.32;;;1.63;;
62990;SDS011;49084;48.204;16.202;2024-01-27T08:04:24;3.78;;;1.33;;
62990;SDS011;49084;48.204;16.202;2024-01-27T08:06:50;7.47;;;1.52;;
62990;SDS011;49084;48.204;16.202;2024-01-27T08:09:16;5.18;;;1.65;;
62990;SDS011;49084;48.204;16.202;2024-01-27T08:11:43;6.22;;;2.17;;
62990;SDS011;49084;48.204;16.202;2024-01-27T08:14:09;4.70;;;1.50;;
62990;SDS011;49084;48.204;16.202;2024-01-27T08:16:34;11.60;;;2.63;;
62990;SDS011;49084;48.204;16.202;2024-01-27T08:19:00;4.95;;;1.50;;
62990;SDS011;49084;48.204;16.202;2024-01-27T08:21:26;6.32;;;2.03;;
62990;SDS011;49084;48.204;16.202;2024-01-27T08:23:52;5.00;;;1.70;;
62990;SDS011;49084;48.204;16.202;2024-01-27T08:26:19;3.83;;;1.40;;
62990;SDS011;49084;48.204;16.202;2024-01-27T08:28:46;9.38;;;2.95;;
62990;SDS011;49084;48.204;16.202;2024-01-27T08:31:12;3.55;;;1.98;;
62990;SDS011;49084;48.204;16.202;2024-01-27T08:33:38;7.90;;;2.05;;
62990;SDS011;49084;48.204;16.202;2024-01-27T08:36:03;4.75;;;1.40;;
62990;SDS011;49084;48.204;16.202;2024-01-27T08:38:29;6.82;;;1.63;;
62990;SDS011;49084;48.204;16.202;2024-01-27T08:40:55;4.13;;;1.40;;
62990;SDS011;49084;48.204;16.202;2024-01-27T08:43:20;4.55;;;1.17;;
62990;SDS011;49084;48.204;16.202;2024-01-27T08:45:46;4.82;;;1.63;;
62990;SDS011;49084;48.204;16.202;2024-01-27T08:48:12;2.50;;;1.40;;
62990;SDS011;49084;48.204;16.202;2024-01-27T08:50:37;7.47;;;1.42;;
62990;SDS011;49084;48.204;16.202;2024-01-27T08:53:04;6.07;;;1.30;;
62990;SDS011;49084;48.204;16.202;2024-01-27T08:55:29;6.55;;;1.90;;
62990;SDS011;49084;48.204;16.202;2024-01-27T08:57:58;5.53;;;1.85;;
62990;SDS011;49084;48.204;16.202;2024-01-27T09:00:24;5.28;;;1.90;;
62990;SDS011;49084;48.204;16.202;2024-01-27T09:02:50;6.68;;;2.28;;
62990;SDS011;49084;48.204;16.202;2024-01-27T09:05:17;3.83;;;1.70;;
62990;SDS011;49084;48.204;16.202;2024-01-27T09:07:43;7.15;;;2.00;;
62990;SDS011;49084;48.204;16.202;2024-01-27T09:10:08;6.20;;;2.28;;
62990;SDS011;49084;48.204;16.202;2024-01-27T09:12:37;6.15;;;2.28;;
62990;SDS011;49084;48.204;16.202;2024-01-27T09:15:03;5.82;;;2.08;;
62990;SDS011;49084;48.204;16.202;2024-01-27T09:17:29;6.93;;;2.15;;
62990;SDS011;49084;48.204;16.202;2024-01-27T09:19:55;5.22;;;2.17;;
62990;SDS011;49084;48.204;16.202;2024-01-27T09:22:20;5.75;;;1.92;;
62990;SDS011;49084;48.204;16.202;2024-01-27T09:24:46;8.77;;;2.58;;
62990;SDS011;49084;48.204;16.202;2024-01-27T09:27:12;9.25;;;3.17;;
62990;SDS011;49084;48.204;16.202;2024-01-27T09:29:37;9.15;;;2.10;;
62990;SDS011;49084;48.204;16.202;2024-01-27T09:32:04;8.93;;;2.97;;
62990;SDS011;49084;48.204;16.202;2024-01-27T09:34:30;8.63;;;1.98;;
62990;SDS011;49084;48.204;16.202;2024-01-27T09:36:55;6.85;;;1.85;;
62990;SDS011;49084;48.204;16.202;2024-01-27T09:39:21;9.95;;;2.60;;
62990;SDS011;49084;48.204;16.202;2024-01-27T09:41:47;6.60;;;2.47;;
62990;SDS011;49084;48.204;16.202;2024-01-27T09:44:13;8.93;;;2.67;;
62990;SDS011;49084;48.204;16.202;2024-01-27T09:46:43;6.07;;;1.90;;
62990;SDS011;49084;48.204;16.202;2024-01-27T09:49:10;8.02;;;2.25;;
62990;SDS011;49084;48.204;16.202;2024-01-27T09:51:38;5.82;;;1.40;;
62990;SDS011;49084;48.204;16.202;2024-01-27T09:54:03;5.88;;;1.33;;
62990;SDS011;49084;48.204;16.202;2024-01-27T09:56:29;2.67;;;1.52;;
62990;SDS011;49084;48.204;16.202;2024-01-27T09:58:56;6.47;;;2.17;;
62990;SDS011;49084;48.204;16.202;2024-01-27T10:01:23;8.35;;;3.33;;
62990;SDS011;49084;48.204;16.202;2024-01-27T10:03:52;5.70;;;1.60;;
62990;SDS011;49084;48.204;16.202;2024-01-27T10:06:20;4.75;;;1.58;;
62990;SDS011;49084;48.204;16.202;2024-01-27T10:08:52;4.28;;;1.90;;
62990;SDS011;49084;48.204;16.202;2024-01-27T10:11:19;5.65;;;1.73;;
62990;SDS011;49084;48.204;16.202;2024-01-27T10:13:53;6.28;;;2.22;;
62990;SDS011;49084;48.204;16.202;2024-01-27T10:16:25;7.78;;;2.25;;
62990;SDS011;49084;48.204;16.202;2024-01-27T10:18:59;7.30;;;1.85;;
62990;SDS011;49084;48.204;16.202;2024-01-27T10:21:26;7.50;;;2.58;;
62990;SDS011;49084;48.204;16.202;2024-01-27T10:23:52;9.50;;;1.58;;
62990;SDS011;49084;48.204;16.202;2024-01-27T10:26:18;6.20;;;1.88;;
62990;SDS011;49084;48.204;16.202;2024-01-27T10:28:52;8.48;;;1.63;;
62990;SDS011;49084;48.204;16.202;2024-01-27T10:31:25;3.90;;;1.60;;
62990;SDS011;49084;48.204;16.202;2024-01-27T10:33:52;7.78;;;1.75;;
62990;SDS011;49084;48.204;16.202;2024-01-27T10:36:19;6.43;;;2.05;;
62990;SDS011;49084;48.204;16.202;2024-01-27T10:38:45;6.85;;;1.80;;
62990;SDS011;49084;48.204;16.202;2024-01-27T10:41:11;5.22;;;1.33;;
62990;SDS011;49084;48.204;16.202;2024-01-27T10:43:42;7.53;;;1.98;;
62990;SDS011;49084;48.204;16.202;2024-01-27T10:46:09;6.40;;;2.03;;
62990;SDS011;49084;48.204;16.202;2024-01-27T10:48:36;6.57;;;1.40;;
62990;SDS011;49084;48.204;16.202;2024-01-27T10:51:11;3.00;;;1.38;;
62990;SDS011;49084;48.204;16.202;2024-01-27T10:53:39;6.18;;;1.70;;
62990;SDS011;49084;48.204;16.202;2024-01-27T10:56:06;6.00;;;1.67;;
62990;SDS011;49084;48.204;16.202;2024-01-27T10:58:39;8.82;;;1.98;;
62990;SDS011;49084;48.204;16.202;2024-01-27T11:01:10;7.43;;;1.63;;
62990;SDS011;49084;48.204;16.202;2024-01-27T11:03:39;9.38;;;1.95;;
62990;SDS011;49084;48.204;16.202;2024-01-27T11:06:06;5.30;;;1.40;;
62990;SDS011;49084;48.204;16.202;2024-01-27T11:08:33;6.90;;;1.30;;
62990;SDS011;49084;48.204;16.202;2024-01-27T11:11:00;4.43;;;1.58;;
62990;SDS011;49084;48.204;16.202;2024-01-27T11:13:27;4.88;;;1.20;;
62990;SDS011;49084;48.204;16.202;2024-01-27T11:15:55;5.82;;;1.58;;
62990;SDS011;49084;48.204;16.202;2024-01-27T11:18:21;3.63;;;1.33;;
62990;SDS011;49084;48.204;16.202;2024-01-27T11:20:47;5.25;;;1.23;;
62990;SDS011;49084;48.204;16.202;2024-01-27T11:23:13;5.30;;;1.63;;
62990;SDS011;49084;48.204;16.202;2024-01-27T11:25:39;4.30;;;1.67;;
62990;SDS011;49084;48.204;16.202;2024-01-27T11:28:11;4.47;;;1.40;;
62990;SDS011;49084;48.204;16.202;2024-01-27T11:30:39;3.53;;;1.80;;
62990;SDS011;49084;48.204;16.202;2024-01-27T11:33:09;5.82;;;1.75;;
62990;SDS011;49084;48.204;16.202;2024-01-27T11:35:35;2.45;;;1.40;;
62990;SDS011;49084;48.204;16.202;2024-01-27T11:38:01;5.50;;;2.47;;
62990;SDS011;49084;48.204;16.202;2024-01-27T11:40:27;5.95;;;1.65;;
62990;SDS011;49084;48.204;16.202;2024-01-27T11:42:57;5.22;;;1.75;;
62990;SDS011;49084;48.204;16.202;2024-01-27T11:45:23;6.20;;;1.52;;
62990;SDS011;49084;48.204;16.202;2024-01-27T11:47:49;7.15;;;1.80;;
62990;SDS011;49084;48.204;16.202;2024-01-27T11:50:18;4.65;;;1.40;;
62990;SDS011;49084;48.204;16.202;2024-01-27T11:52:45;2.65;;;1.13;;
62990;SDS011;49084;48.204;16.202;2024-01-27T11:55:10;5.85;;;2.08;;
62990;SDS011;49084;48.204;16.202;2024-01-27T11:57:36;3.60;;;1.38;;
62990;SDS011;49084;48.204;16.202;2024-01-27T12:00:02;7.05;;;1.33;;
62990;SDS011;49084;48.204;16.202;2024-01-27T12:02:28;2.60;;;1.17;;
62990;SDS011;49084;48.204;16.202;2024-01-27T12:04:54;5.00;;;1.58;;
62990;SDS011;49084;48.204;16.202;2024-01-27T12:07:19;3.28;;;1.23;;
62990;SDS011;49084;48.204;16.202;2024-01-27T12:09:46;10.05;;;2.50;;
62990;SDS011;49084;48.204;16.202;2024-01-27T12:12:13;3.42;;;1.23;;
62990;SDS011;49084;48.204;16.202;2024-01-27T12:14:40;4.95;;;1.23;;
62990;SDS011;49084;48.204;16.202;2024-01-27T12:17:12;3.42;;;1.50;;
62990;SDS011;49084;48.204;16.202;2024-01-27T12:19:38;5.30;;;2.33;;
62990;SDS011;49084;48.204;16.202;2024-01-27T12:22:20;5.80;;;1.98;;
62990;SDS011;49084;48.204;16.202;2024-01-27T12:24:46;5.03;;;1.45;;
62990;SDS011;49084;48.204;16.202;2024-01-27T12:27:12;3.95;;;1.13;;
62990;SDS011;49084;48.204;16.202;2024-01-27T12:29:40;4.10;;;1.60;;
62990;SDS011;49084;48.204;16.202;2024-01-27T12:32:06;4.67;;;1.47;;
62990;SDS011;49084;48.204;16.202;2024-01-27T12:34:32;5.07;;;1.35;;
62990;SDS011;49084;48.204;16.202;2024-01-27T12:36:58;3.72;;;1.40;;
62990;SDS011;49084;48.204;16.202;2024-01-27T12:39:23;5.78;;;1.42;;
62990;SDS011;49084;48.204;16.202;2024-01-27T12:41:51;3.47;;;1.35;;
62990;SDS011;49084;48.204;16.202;2024-01-27T12:44:17;8.55;;;1.98;;
62990;SDS011;49084;48.204;16.202;2024-01-27T12:46:42;7.85;;;1.60;;
62990;SDS011;49084;48.204;16.202;2024-01-27T12:49:08;2.42;;;1.20;;
62990;SDS011;49084;48.204;16.202;2024-01-27T12:51:34;6.95;;;1.58;;
62990;SDS011;49084;48.204;16.202;2024-01-27T12:53:59;7.47;;;1.63;;
62990;SDS011;49084;48.204;16.202;2024-01-27T12:56:25;5.28;;;1.58;;
62990;SDS011;49084;48.204;16.202;2024-01-27T12:58:51;4.32;;;1.30;;
62990;SDS011;49084;48.204;16.202;2024-01-27T13:01:17;5.90;;;1.33;;
62990;SDS011;49084;48.204;16.202;2024-01-27T13:03:42;7.30;;;1.73;;
62990;SDS011;49084;48.204;16.202;2024-01-27T13:06:08;6.35;;;1.70;;
62990;SDS011;49084;48.204;16.202;2024-01-27T13:08:34;5.72;;;1.52;;
62990;SDS011;49084;48.204;16.202;2024-01-27T13:10:59;4.90;;;1.63;;
62990;SDS011;49084;48.204;16.202;2024-01-27T13:13:25;2.83;;;1.33;;
62990;SDS011;49084;48.204;16.202;2024-01-27T13:15:51;5.50;;;2.38;;
62990;SDS011;49084;48.204;16.202;2024-01-27T13:18:17;6.00;;;1.55;;
62990;SDS011;49084;48.204;16.202;2024-01-27T13:20:42;7.90;;;1.60;;
62990;SDS011;49084;48.204;16.202;2024-01-27T13:23:08;6.00;;;2.30;;
62990;SDS011;49084;48.204;16.202;2024-01-27T13:25:34;5.13;;;1.25;;
62990;SDS011;49084;48.204;16.202;2024-01-27T13:27:59;5.05;;;1.60;;
62990;SDS011;49084;48.204;16.202;2024-01-27T13:30:25;5.60;;;2.03;;
62990;SDS011;49084;48.204;16.202;2024-01-27T13:32:52;6.13;;;1.55;;
62990;SDS011;49084;48.204;16.202;2024-01-27T13:35:17;6.55;;;1.35;;
62990;SDS011;49084;48.204;16.202;2024-01-27T13:37:43;3.88;;;1.20;;
62990;SDS011;49084;48.204;16.202;2024-01-27T13:40:11;5.35;;;1.08;;
62990;SDS011;49084;48.204;16.202;2024-01-27T13:42:36;6.63;;;1.42;;
62990;SDS011;49084;48.204;16.202;2024-01-27T13:45:02;6.60;;;1.42;;
62990;SDS011;49084;48.204;16.202;2024-01-27T13:47:28;3.70;;;1.52;;
62990;SDS011;49084;48.204;16.202;2024-01-27T13:49:54;5.85;;;1.38;;
62990;SDS011;49084;48.204;16.202;2024-01-27T13:52:20;4.20;;;1.20;;
62990;SDS011;49084;48.204;16.202;2024-01-27T13:54:46;6.80;;;1.20;;
62990;SDS011;49084;48.204;16.202;2024-01-27T13:57:11;3.60;;;1.15;;
62990;SDS011;49084;48.204;16.202;2024-01-27T13:59:37;6.05;;;1.13;;
62990;SDS011;49084;48.204;16.202;2024-01-27T14:02:03;6.97;;;1.52;;
62990;SDS011;49084;48.204;16.202;2024-01-27T14:04:29;5.65;;;1.00;;
62990;SDS011;49084;48.204;16.202;2024-01-27T14:06:55;5.82;;;1.45;;
62990;SDS011;49084;48.204;16.202;2024-01-27T14:09:27;6.65;;;1.27;;
62990;SDS011;49084;48.204;16.202;2024-01-27T14:11:53;9.18;;;1.70;;
62990;SDS011;49084;48.204;16.202;2024-01-27T14:14:19;4.35;;;1.20;;
62990;SDS011;49084;48.204;16.202;2024-01-27T14:16:45;4.47;;;1.30;;
62990;SDS011;49084;48.204;16.202;2024-01-27T14:19:12;4.85;;;1.58;;
62990;SDS011;49084;48.204;16.202;2024-01-27T14:21:37;3.90;;;1.17;;
62990;SDS011;49084;48.204;16.202;2024-01-27T14:24:04;4.82;;;1.48;;
62990;SDS011;49084;48.204;16.202;2024-01-27T14:26:31;7.00;;;2.20;;